sensor_id;sensor_type;location;lat;lon;timestamp;temperature;humidity
62904;DHT22;49000;50.698;13.322;2022-12-17T00:00:09;-4.40;99.90
62904;DHT22;49000;50.698;13.322;2022-12-17T00:02:57;-4.50;99.90
62904;DHT22;49000;50.698;13.322;2022-12-17T00:05:42;-4.50;99.90
62904;DHT22;49000;50.698;13.322;2022-12-17T00:08:26;-4.40;99.90
62904;DHT22;49000;50.698;13.322;2022-12-17T00:11:10;-4.40;99.90
62904;DHT22;49000;50.698;13.322;2022-12-17T00:13:54;-4.60;99.90
62904;DHT22;49000;50.698;13.322;2022-12-17T00:16:38;-4.70;99.90
62904;DHT22;49000;50.698;13.322;2022-12-17T00:19:22;-4.40;99.90
62904;DHT22;49000;50.698;13.322;2022-12-17T00:22:06;-4.80;99.90
62904;DHT22;49000;50.698;13.322;2022-12-17T00:24:50;-4.60;99.90
62904;DHT22;49000;50.698;13.322;2022-12-17T00:27:34;-5.00;99.90
62904;DHT22;49000;50.698;13.322;2022-12-17T00:30:18;-4.60;99.90
62904;DHT22;49000;50.698;13.322;2022-12-17T00:33:02;-4.90;99.90
62904;DHT22;49000;50.698;13.322;2022-12-17T00:35:51;-4.90;99.90
62904;DHT22;49000;50.698;13.322;2022-12-17T00:38:35;-4.90;99.90
62904;DHT22;49000;50.698;13.322;2022-12-17T00:41:19;-4.80;99.90
62904;DHT22;49000;50.698;13.322;2022-12-17T00:44:03;-5.20;99.90
62904;DHT22;49000;50.698;13.322;2022-12-17T00:46:47;-4.60;99.90
62904;DHT22;49000;50.698;13.322;2022-12-17T00:49:31;-4.60;99.90
62904;DHT22;49000;50.698;13.322;2022-12-17T00:52:15;-4.50;99.90
62904;DHT22;49000;50.698;13.322;2022-12-17T00:54:59;-4.60;99.90
62904;DHT22;49000;50.698;13.322;2022-12-17T00:57:43;-4.50;99.90
62904;DHT22;49000;50.698;13.322;2022-12-17T01:00:27;-4.60;99.90
62904;DHT22;49000;50.698;13.322;2022-12-17T01:03:11;-4.60;99.90
62904;DHT22;49000;50.698;13.322;2022-12-17T01:05:55;-4.60;99.90
62904;DHT22;49000;50.698;13.322;2022-12-17T01:08:40;-5.30;99.90
62904;DHT22;49000;50.698;13.322;2022-12-17T01:11:24;-4.60;99.90
62904;DHT22;49000;50.698;13.322;2022-12-17T01:14:08;-4.80;99.90
62904;DHT22;49000;50.698;13.322;2022-12-17T01:16:52;-4.80;99.90
62904;DHT22;49000;50.698;13.322;2022-12-17T01:19:36;-4.60;99.90
62904;DHT22;49000;50.698;13.322;2022-12-17T01:22:20;-4.40;99.90
62904;DHT22;49000;50.698;13.322;2022-12-17T01:25:05;-4.70;99.90
62904;DHT22;49000;50.698;13.322;2022-12-17T01:27:51;-4.40;99.90
62904;DHT22;49000;50.698;13.322;2022-12-17T01:30:36;-4.90;99.90
62904;DHT22;49000;50.698;13.322;2022-12-17T01:33:21;-4.70;99.90
62904;DHT22;49000;50.698;13.322;2022-12-17T01:36:06;-4.60;99.90
62904;DHT22;49000;50.698;13.322;2022-12-17T01:38:50;-4.70;99.90
62904;DHT22;49000;50.698;13.322;2022-12-17T01:41:34;-4.50;99.90
62904;DHT22;49000;50.698;13.322;2022-12-17T01:47:31;-4.70;99.90
62904;DHT22;49000;50.698;13.322;2022-12-17T01:50:16;-4.50;99.90
62904;DHT22;49000;50.698;13.322;2022-12-17T01:53:03;-4.50;99.90
62904;DHT22;49000;50.698;13.322;2022-12-17T01:55:48;-5.10;99.90
62904;DHT22;49000;50.698;13.322;2022-12-17T01:58:33;-4.50;99.90
62904;DHT22;49000;50.698;13.322;2022-12-17T02:01:18;-4.50;99.90
62904;DHT22;49000;50.698;13.322;2022-12-17T02:04:02;-4.40;99.90
62904;DHT22;49000;50.698;13.322;2022-12-17T02:07:20;-4.40;99.90
62904;DHT22;49000;50.698;13.322;2022-12-17T02:10:11;-4.50;99.90
62904;DHT22;49000;50.698;13.322;2022-12-17T02:13:09;-4.50;99.90
62904;DHT22;49000;50.698;13.322;2022-12-17T02:16:14;-4.30;99.90
62904;DHT22;49000;50.698;13.322;2022-12-17T02:19:41;-4.60;99.90
62904;DHT22;49000;50.698;13.322;2022-12-17T02:26:08;-4.40;99.90
62904;DHT22;49000;50.698;13.322;2022-12-17T02:28:55;-4.50;99.90
62904;DHT22;49000;50.698;13.322;2022-12-17T02:31:41;-4.40;99.90
62904;DHT22;49000;50.698;13.322;2022-12-17T02:34:26;-4.50;99.90
62904;DHT22;49000;50.698;13.322;2022-12-17T02:37:10;-4.40;99.90
62904;DHT22;49000;50.698;13.322;2022-12-17T02:39:54;-4.80;99.90
62904;DHT22;49000;50.698;13.322;2022-12-17T02:42:38;-4.30;99.90
62904;DHT22;49000;50.698;13.322;2022-12-17T02:45:24;-4.20;99.90
62904;DHT22;49000;50.698;13.322;2022-12-17T02:48:09;-4.80;99.90
62904;DHT22;49000;50.698;13.322;2022-12-17T02:50:56;-5.00;99.90
62904;DHT22;49000;50.698;13.322;2022-12-17T02:53:43;-4.30;99.90
62904;DHT22;49000;50.698;13.322;2022-12-17T02:56:28;-4.30;99.90
62904;DHT22;49000;50.698;13.322;2022-12-17T02:59:12;-4.60;99.90
62904;DHT22;49000;50.698;13.322;2022-12-17T03:01:56;-4.60;99.90
62904;DHT22;49000;50.698;13.322;2022-12-17T03:04:40;-4.30;99.90
62904;DHT22;49000;50.698;13.322;2022-12-17T03:07:24;-4.20;99.90
62904;DHT22;49000;50.698;13.322;2022-12-17T03:10:08;-4.30;99.90
62904;DHT22;49000;50.698;13.322;2022-12-17T03:12:52;-4.80;99.90
62904;DHT22;49000;50.698;13.322;2022-12-17T03:15:36;-4.80;99.90
62904;DHT22;49000;50.698;13.322;2022-12-17T03:18:20;-4.20;99.90
62904;DHT22;49000;50.698;13.322;2022-12-17T03:21:04;-4.70;99.90
62904;DHT22;49000;50.698;13.322;2022-12-17T03:23:48;-4.20;99.90
62904;DHT22;49000;50.698;13.322;2022-12-17T03:26:32;-4.50;99.90
62904;DHT22;49000;50.698;13.322;2022-12-17T03:29:16;-4.40;99.90
62904;DHT22;49000;50.698;13.322;2022-12-17T03:32:00;-4.20;99.90
62904;DHT22;49000;50.698;13.322;2022-12-17T03:34:44;-4.90;99.90
62904;DHT22;49000;50.698;13.322;2022-12-17T03:37:28;-4.40;99.90
62904;DHT22;49000;50.698;13.322;2022-12-17T03:40:12;-4.50;99.90
62904;DHT22;49000;50.698;13.322;2022-12-17T03:42:56;-4.40;99.90
62904;DHT22;49000;50.698;13.322;2022-12-17T03:45:40;-4.80;99.90
62904;DHT22;49000;50.698;13.322;2022-12-17T03:48:24;-4.30;99.90
62904;DHT22;49000;50.698;13.322;2022-12-17T03:51:08;-4.50;99.90
62904;DHT22;49000;50.698;13.322;2022-12-17T03:54:09;-4.50;99.90
62904;DHT22;49000;50.698;13.322;2022-12-17T03:56:53;-4.40;99.90
62904;DHT22;49000;50.698;13.322;2022-12-17T03:59:37;-4.60;99.90
62904;DHT22;49000;50.698;13.322;2022-12-17T04:02:21;-4.20;99.90
62904;DHT22;49000;50.698;13.322;2022-12-17T04:05:05;-4.80;99.90
62904;DHT22;49000;50.698;13.322;2022-12-17T04:07:49;-4.30;99.90
62904;DHT22;49000;50.698;13.322;2022-12-17T04:10:33;-4.20;99.90
62904;DHT22;49000;50.698;13.322;2022-12-17T04:13:17;-4.20;99.90
62904;DHT22;49000;50.698;13.322;2022-12-17T04:16:01;-4.10;99.90
62904;DHT22;49000;50.698;13.322;2022-12-17T04:18:45;-4.40;99.90
62904;DHT22;49000;50.698;13.322;2022-12-17T04:21:29;-4.20;99.90
62904;DHT22;49000;50.698;13.322;2022-12-17T04:24:13;-4.90;99.90
62904;DHT22;49000;50.698;13.322;2022-12-17T04:26:57;-4.20;99.90
62904;DHT22;49000;50.698;13.322;2022-12-17T04:29:41;-4.30;99.90
62904;DHT22;49000;50.698;13.322;2022-12-17T04:32:25;-4.50;99.90
62904;DHT22;49000;50.698;13.322;2022-12-17T04:35:09;-4.30;99.90
62904;DHT22;49000;50.698;13.322;2022-12-17T04:37:53;-5.00;99.90
62904;DHT22;49000;50.698;13.322;2022-12-17T04:40:37;-4.40;99.90
62904;DHT22;49000;50.698;13.322;2022-12-17T04:43:21;-4.40;99.90
62904;DHT22;49000;50.698;13.322;2022-12-17T04:46:05;-4.30;99.90
62904;DHT22;49000;50.698;13.322;2022-12-17T04:48:49;-4.70;99.90
62904;DHT22;49000;50.698;13.322;2022-12-17T04:51:33;-4.70;99.90
62904;DHT22;49000;50.698;13.322;2022-12-17T04:54:17;-4.40;99.90
62904;DHT22;49000;50.698;13.322;2022-12-17T04:57:01;-4.20;99.90
62904;DHT22;49000;50.698;13.322;2022-12-17T04:59:45;-4.30;99.90
62904;DHT22;49000;50.698;13.322;2022-12-17T05:02:29;-4.50;99.90
62904;DHT22;49000;50.698;13.322;2022-12-17T05:05:13;-4.40;99.90
62904;DHT22;49000;50.698;13.322;2022-12-17T05:07:57;-4.50;99.90
62904;DHT22;49000;50.698;13.322;2022-12-17T05:10:41;-4.40;99.90
62904;DHT22;49000;50.698;13.322;2022-12-17T05:13:26;-4.10;99.90
62904;DHT22;49000;50.698;13.322;2022-12-17T05:16:10;-4.40;99.90
62904;DHT22;49000;50.698;13.322;2022-12-17T05:18:54;-4.40;99.90
62904;DHT22;49000;50.698;13.322;2022-12-17T05:21:38;-4.50;99.90
62904;DHT22;49000;50.698;13.322;2022-12-17T05:24:22;-4.40;99.90
62904;DHT22;49000;50.698;13.322;2022-12-17T05:27:06;-4.30;99.90
62904;DHT22;49000;50.698;13.322;2022-12-17T05:29:50;-4.20;99.90
62904;DHT22;49000;50.698;13.322;2022-12-17T05:32:34;-4.20;99.90
62904;DHT22;49000;50.698;13.322;2022-12-17T05:35:18;-4.20;99.90
62904;DHT22;49000;50.698;13.322;2022-12-17T05:38:04;-4.30;99.90
62904;DHT22;49000;50.698;13.322;2022-12-17T05:40:48;-4.30;99.90
62904;DHT22;49000;50.698;13.322;2022-12-17T05:43:32;-4.60;99.90
62904;DHT22;49000;50.698;13.322;2022-12-17T05:46:16;-4.30;99.90
62904;DHT22;49000;50.698;13.322;2022-12-17T05:49:00;-4.20;99.90
62904;DHT22;49000;50.698;13.322;2022-12-17T05:51:44;-4.40;99.90
62904;DHT22;49000;50.698;13.322;2022-12-17T05:54:28;-4.00;99.90
62904;DHT22;49000;50.698;13.322;2022-12-17T05:57:12;-4.00;99.90
62904;DHT22;49000;50.698;13.322;2022-12-17T05:59:56;-4.30;99.90
62904;DHT22;49000;50.698;13.322;2022-12-17T06:02:40;-4.00;99.90
62904;DHT22;49000;50.698;13.322;2022-12-17T06:05:24;-4.00;99.90
62904;DHT22;49000;50.698;13.322;2022-12-17T06:08:22;-3.90;99.90
62904;DHT22;49000;50.698;13.322;2022-12-17T06:11:06;-4.20;99.90
62904;DHT22;49000;50.698;13.322;2022-12-17T06:13:50;-4.10;99.90
62904;DHT22;49000;50.698;13.322;2022-12-17T06:16:34;-4.50;99.90
62904;DHT22;49000;50.698;13.322;2022-12-17T06:19:18;-4.20;99.90
62904;DHT22;49000;50.698;13.322;2022-12-17T06:22:02;-3.90;99.90
62904;DHT22;49000;50.698;13.322;2022-12-17T06:24:46;-3.80;99.90
62904;DHT22;49000;50.698;13.322;2022-12-17T06:27:30;-4.20;99.90
62904;DHT22;49000;50.698;13.322;2022-12-17T06:30:14;-4.00;99.90
62904;DHT22;49000;50.698;13.322;2022-12-17T06:33:03;-4.10;99.90
62904;DHT22;49000;50.698;13.322;2022-12-17T06:35:47;-4.00;99.90
62904;DHT22;49000;50.698;13.322;2022-12-17T06:38:31;-4.10;99.90
62904;DHT22;49000;50.698;13.322;2022-12-17T06:41:15;-4.00;99.90
62904;DHT22;49000;50.698;13.322;2022-12-17T06:43:59;-4.60;99.90
62904;DHT22;49000;50.698;13.322;2022-12-17T06:46:43;-4.00;99.90
62904;DHT22;49000;50.698;13.322;2022-12-17T06:49:27;-4.10;99.90
62904;DHT22;49000;50.698;13.322;2022-12-17T06:52:11;-3.90;99.90
62904;DHT22;49000;50.698;13.322;2022-12-17T06:54:55;-4.20;99.90
62904;DHT22;49000;50.698;13.322;2022-12-17T06:57:39;-3.90;99.90
62904;DHT22;49000;50.698;13.322;2022-12-17T07:00:23;-4.10;99.90
62904;DHT22;49000;50.698;13.322;2022-12-17T07:03:09;-4.30;99.90
62904;DHT22;49000;50.698;13.322;2022-12-17T07:05:54;-4.60;99.90
62904;DHT22;49000;50.698;13.322;2022-12-17T07:08:38;-4.50;99.90
62904;DHT22;49000;50.698;13.322;2022-12-17T07:11:22;-3.90;99.90
62904;DHT22;49000;50.698;13.322;2022-12-17T07:14:06;-3.90;99.90
62904;DHT22;49000;50.698;13.322;2022-12-17T07:16:50;-4.10;99.90
62904;DHT22;49000;50.698;13.322;2022-12-17T07:19:34;-3.90;99.90
62904;DHT22;49000;50.698;13.322;2022-12-17T07:22:18;-3.90;99.90
62904;DHT22;49000;50.698;13.322;2022-12-17T07:25:02;-4.20;99.90
62904;DHT22;49000;50.698;13.322;2022-12-17T07:27:53;-3.70;99.90
62904;DHT22;49000;50.698;13.322;2022-12-17T07:30:38;-3.80;99.90
62904;DHT22;49000;50.698;13.322;2022-12-17T07:33:22;-4.00;99.90
62904;DHT22;49000;50.698;13.322;2022-12-17T07:36:06;-4.00;99.90
62904;DHT22;49000;50.698;13.322;2022-12-17T07:38:50;-4.00;99.90
62904;DHT22;49000;50.698;13.322;2022-12-17T07:41:34;-3.80;99.90
62904;DHT22;49000;50.698;13.322;2022-12-17T07:44:19;-3.90;99.90
62904;DHT22;49000;50.698;13.322;2022-12-17T07:47:03;-3.90;99.90
62904;DHT22;49000;50.698;13.322;2022-12-17T07:49:47;-3.70;99.90
62904;DHT22;49000;50.698;13.322;2022-12-17T07:52:31;-3.80;99.90
62904;DHT22;49000;50.698;13.322;2022-12-17T07:55:15;-4.30;99.90
62904;DHT22;49000;50.698;13.322;2022-12-17T07:58:00;-4.10;99.90
62904;DHT22;49000;50.698;13.322;2022-12-17T08:00:44;-3.50;99.90
62904;DHT22;49000;50.698;13.322;2022-12-17T08:03:28;-3.70;99.90
62904;DHT22;49000;50.698;13.322;2022-12-17T08:06:12;-4.10;99.90
62904;DHT22;49000;50.698;13.322;2022-12-17T08:08:57;-3.40;99.90
62904;DHT22;49000;50.698;13.322;2022-12-17T08:11:42;-3.80;99.90
62904;DHT22;49000;50.698;13.322;2022-12-17T08:14:34;-3.20;99.90
62904;DHT22;49000;50.698;13.322;2022-12-17T08:17:18;-3.30;99.90
62904;DHT22;49000;50.698;13.322;2022-12-17T08:20:03;-3.30;99.90
62904;DHT22;49000;50.698;13.322;2022-12-17T08:22:47;-3.20;99.90
62904;DHT22;49000;50.698;13.322;2022-12-17T08:25:31;-3.30;99.90
62904;DHT22;49000;50.698;13.322;2022-12-17T08:28:15;-3.30;99.90
62904;DHT22;49000;50.698;13.322;2022-12-17T08:30:59;-3.20;99.90
62904;DHT22;49000;50.698;13.322;2022-12-17T08:33:43;-3.10;99.90
62904;DHT22;49000;50.698;13.322;2022-12-17T08:36:27;-3.10;99.90
62904;DHT22;49000;50.698;13.322;2022-12-17T08:39:11;-2.90;99.90
62904;DHT22;49000;50.698;13.322;2022-12-17T08:41:55;-3.00;99.90
62904;DHT22;49000;50.698;13.322;2022-12-17T08:44:40;-2.80;99.90
62904;DHT22;49000;50.698;13.322;2022-12-17T08:47:24;-2.80;99.90
62904;DHT22;49000;50.698;13.322;2022-12-17T08:50:08;-2.80;99.90
62904;DHT22;49000;50.698;13.322;2022-12-17T08:52:59;-2.60;99.90
62904;DHT22;49000;50.698;13.322;2022-12-17T08:55:43;-2.60;99.90
62904;DHT22;49000;50.698;13.322;2022-12-17T08:58:28;-2.60;99.90
62904;DHT22;49000;50.698;13.322;2022-12-17T09:01:12;-2.80;99.90
62904;DHT22;49000;50.698;13.322;2022-12-17T09:03:56;-2.60;99.90
62904;DHT22;49000;50.698;13.322;2022-12-17T09:06:40;-2.60;99.90
62904;DHT22;49000;50.698;13.322;2022-12-17T09:09:24;-3.10;99.90
62904;DHT22;49000;50.698;13.322;2022-12-17T09:12:08;-2.60;99.90
62904;DHT22;49000;50.698;13.322;2022-12-17T09:14:52;-2.70;99.90
62904;DHT22;49000;50.698;13.322;2022-12-17T09:17:36;-2.80;99.90
62904;DHT22;49000;50.698;13.322;2022-12-17T09:20:20;-3.20;99.90
62904;DHT22;49000;50.698;13.322;2022-12-17T09:23:04;-2.50;99.90
62904;DHT22;49000;50.698;13.322;2022-12-17T09:25:55;-2.50;99.90
62904;DHT22;49000;50.698;13.322;2022-12-17T09:28:40;-2.20;99.90
62904;DHT22;49000;50.698;13.322;2022-12-17T09:31:25;-2.30;99.90
62904;DHT22;49000;50.698;13.322;2022-12-17T09:34:09;-2.10;99.90
62904;DHT22;49000;50.698;13.322;2022-12-17T09:36:52;-2.90;99.90
62904;DHT22;49000;50.698;13.322;2022-12-17T09:39:36;-2.70;99.90
62904;DHT22;49000;50.698;13.322;2022-12-17T09:42:24;-2.50;99.90
62904;DHT22;49000;50.698;13.322;2022-12-17T09:45:22;-2.40;99.90
62904;DHT22;49000;50.698;13.322;2022-12-17T09:48:21;-2.40;99.90
62904;DHT22;49000;50.698;13.322;2022-12-17T09:51:22;-2.30;99.90
62904;DHT22;49000;50.698;13.322;2022-12-17T09:54:43;-2.30;99.90
62904;DHT22;49000;50.698;13.322;2022-12-17T09:57:32;-2.40;99.90
62904;DHT22;49000;50.698;13.322;2022-12-17T10:03:03;-2.40;99.90
62904;DHT22;49000;50.698;13.322;2022-12-17T10:05:53;-2.60;99.90
62904;DHT22;49000;50.698;13.322;2022-12-17T10:08:39;-2.20;99.90
62904;DHT22;49000;50.698;13.322;2022-12-17T10:11:26;-2.20;99.90
62904;DHT22;49000;50.698;13.322;2022-12-17T10:14:18;-2.00;99.90
62904;DHT22;49000;50.698;13.322;2022-12-17T10:17:03;-2.40;99.90
62904;DHT22;49000;50.698;13.322;2022-12-17T10:19:53;-1.90;99.90
62904;DHT22;49000;50.698;13.322;2022-12-17T10:22:47;-1.90;99.90
62904;DHT22;49000;50.698;13.322;2022-12-17T10:25:31;-2.00;99.90
62904;DHT22;49000;50.698;13.322;2022-12-17T10:28:18;-2.00;99.90
62904;DHT22;49000;50.698;13.322;2022-12-17T10:31:09;-1.80;99.90
62904;DHT22;49000;50.698;13.322;2022-12-17T10:33:56;-1.80;99.90
62904;DHT22;49000;50.698;13.322;2022-12-17T10:36:49;-1.60;99.90
62904;DHT22;49000;50.698;13.322;2022-12-17T10:39:34;-1.60;99.90
62904;DHT22;49000;50.698;13.322;2022-12-17T10:42:26;-1.60;99.90
62904;DHT22;49000;50.698;13.322;2022-12-17T10:45:24;-1.30;99.90
62904;DHT22;49000;50.698;13.322;2022-12-17T10:48:28;-1.00;99.90
62904;DHT22;49000;50.698;13.322;2022-12-17T10:51:33;-0.70;99.90
62904;DHT22;49000;50.698;13.322;2022-12-17T10:54:29;-0.60;99.90
62904;DHT22;49000;50.698;13.322;2022-12-17T10:57:34;-0.80;99.90
62904;DHT22;49000;50.698;13.322;2022-12-17T11:00:48;-0.70;99.90
62904;DHT22;49000;50.698;13.322;2022-12-17T11:03:52;-0.50;99.90
62904;DHT22;49000;50.698;13.322;2022-12-17T11:06:57;-0.50;99.90
62904;DHT22;49000;50.698;13.322;2022-12-17T11:09:50;-0.20;99.90
62904;DHT22;49000;50.698;13.322;2022-12-17T11:18:26;-0.20;99.90
62904;DHT22;49000;50.698;13.322;2022-12-17T11:21:28;0.00;99.90
62904;DHT22;49000;50.698;13.322;2022-12-17T11:24:24;0.20;99.90
62904;DHT22;49000;50.698;13.322;2022-12-17T11:27:15;0.50;99.90
62904;DHT22;49000;50.698;13.322;2022-12-17T11:30:00;0.30;99.90
62904;DHT22;49000;50.698;13.322;2022-12-17T11:35:55;0.20;99.90
62904;DHT22;49000;50.698;13.322;2022-12-17T11:38:52;0.20;99.90
62904;DHT22;49000;50.698;13.322;2022-12-17T11:42:05;0.00;99.90
62904;DHT22;49000;50.698;13.322;2022-12-17T11:45:27;-0.20;99.90
62904;DHT22;49000;50.698;13.322;2022-12-17T11:48:18;-0.10;99.90
62904;DHT22;49000;50.698;13.322;2022-12-17T11:51:17;0.00;99.90
62904;DHT22;49000;50.698;13.322;2022-12-17T12:00:08;-0.30;99.90
62904;DHT22;49000;50.698;13.322;2022-12-17T12:06:58;-0.80;99.90
62904;DHT22;49000;50.698;13.322;2022-12-17T12:09:53;-0.40;99.90
62904;DHT22;49000;50.698;13.322;2022-12-17T12:19:12;-0.50;99.90
62904;DHT22;49000;50.698;13.322;2022-12-17T12:25:05;-0.20;99.90
62904;DHT22;49000;50.698;13.322;2022-12-17T12:28:18;-0.60;99.90
62904;DHT22;49000;50.698;13.322;2022-12-17T12:31:21;-0.30;99.90
62904;DHT22;49000;50.698;13.322;2022-12-17T12:34:31;-0.50;99.90
62904;DHT22;49000;50.698;13.322;2022-12-17T12:37:19;-0.50;99.90
62904;DHT22;49000;50.698;13.322;2022-12-17T12:40:17;-0.30;99.90
62904;DHT22;49000;50.698;13.322;2022-12-17T12:43:22;-0.30;99.90
62904;DHT22;49000;50.698;13.322;2022-12-17T12:46:16;-0.20;99.90
62904;DHT22;49000;50.698;13.322;2022-12-17T12:49:11;-0.60;99.90
62904;DHT22;49000;50.698;13.322;2022-12-17T12:51:58;-0.80;99.90
62904;DHT22;49000;50.698;13.322;2022-12-17T12:57:35;-0.40;99.90
62904;DHT22;49000;50.698;13.322;2022-12-17T13:00:32;-0.40;99.90
62904;DHT22;49000;50.698;13.322;2022-12-17T13:03:31;-0.50;99.90
62904;DHT22;49000;50.698;13.322;2022-12-17T13:06:45;-0.60;99.90
62904;DHT22;49000;50.698;13.322;2022-12-17T13:09:18;-0.50;99.90
62904;DHT22;49000;50.698;13.322;2022-12-17T13:12:17;-0.50;99.90
62904;DHT22;49000;50.698;13.322;2022-12-17T13:24:48;-0.90;99.90
62904;DHT22;49000;50.698;13.322;2022-12-17T13:33:04;-1.10;99.90
62904;DHT22;49000;50.698;13.322;2022-12-17T13:38:39;-1.00;99.90
62904;DHT22;49000;50.698;13.322;2022-12-17T13:41:18;-1.20;99.90
62904;DHT22;49000;50.698;13.322;2022-12-17T13:43:48;-1.00;99.90
62904;DHT22;49000;50.698;13.322;2022-12-17T13:46:25;-1.20;99.90
62904;DHT22;49000;50.698;13.322;2022-12-17T13:48:53;-1.40;99.90
62904;DHT22;49000;50.698;13.322;2022-12-17T13:51:20;-1.70;99.90
62904;DHT22;49000;50.698;13.322;2022-12-17T13:54:16;-1.70;99.90
62904;DHT22;49000;50.698;13.322;2022-12-17T13:56:43;-1.60;99.90
62904;DHT22;49000;50.698;13.322;2022-12-17T13:59:22;-1.90;99.90
62904;DHT22;49000;50.698;13.322;2022-12-17T14:01:50;-1.80;99.90
62904;DHT22;49000;50.698;13.322;2022-12-17T14:04:21;-1.50;99.90
62904;DHT22;49000;50.698;13.322;2022-12-17T14:06:47;-1.90;99.90
62904;DHT22;49000;50.698;13.322;2022-12-17T14:09:15;-2.10;99.90
62904;DHT22;49000;50.698;13.322;2022-12-17T14:11:42;-2.00;99.90
62904;DHT22;49000;50.698;13.322;2022-12-17T14:14:33;-2.10;99.90
62904;DHT22;49000;50.698;13.322;2022-12-17T14:16:59;-2.60;99.90
62904;DHT22;49000;50.698;13.322;2022-12-17T14:19:26;-2.20;99.90
62904;DHT22;49000;50.698;13.322;2022-12-17T14:21:53;-2.30;99.90
62904;DHT22;49000;50.698;13.322;2022-12-17T14:24:22;-2.70;99.90
62904;DHT22;49000;50.698;13.322;2022-12-17T14:26:58;-2.30;99.90
62904;DHT22;49000;50.698;13.322;2022-12-17T14:29:29;-2.40;99.90
62904;DHT22;49000;50.698;13.322;2022-12-17T14:31:57;-2.40;99.90
62904;DHT22;49000;50.698;13.322;2022-12-17T14:34:23;-2.40;99.90
62904;DHT22;49000;50.698;13.322;2022-12-17T14:36:57;-2.30;99.90
62904;DHT22;49000;50.698;13.322;2022-12-17T14:41:50;-2.30;99.90
62904;DHT22;49000;50.698;13.322;2022-12-17T14:44:39;-2.10;99.90
62904;DHT22;49000;50.698;13.322;2022-12-17T14:47:23;-2.50;99.90
62904;DHT22;49000;50.698;13.322;2022-12-17T14:52:48;-2.40;99.90
62904;DHT22;49000;50.698;13.322;2022-12-17T14:55:35;-2.40;99.90
62904;DHT22;49000;50.698;13.322;2022-12-17T15:03:07;-2.60;99.90
62904;DHT22;49000;50.698;13.322;2022-12-17T15:05:34;-2.20;99.90
62904;DHT22;49000;50.698;13.322;2022-12-17T15:08:00;-2.30;99.90
62904;DHT22;49000;50.698;13.322;2022-12-17T15:10:25;-2.30;99.90
62904;DHT22;49000;50.698;13.322;2022-12-17T15:12:51;-2.50;99.90
62904;DHT22;49000;50.698;13.322;2022-12-17T15:15:17;-2.60;99.90
62904;DHT22;49000;50.698;13.322;2022-12-17T15:17:43;-2.60;99.90
62904;DHT22;49000;50.698;13.322;2022-12-17T15:20:16;-2.70;99.90
62904;DHT22;49000;50.698;13.322;2022-12-17T15:22:41;-2.70;99.90
62904;DHT22;49000;50.698;13.322;2022-12-17T15:25:12;-2.60;99.90
62904;DHT22;49000;50.698;13.322;2022-12-17T15:27:38;-2.70;99.90
62904;DHT22;49000;50.698;13.322;2022-12-17T15:30:04;-2.40;99.90
62904;DHT22;49000;50.698;13.322;2022-12-17T15:32:29;-2.60;99.90
62904;DHT22;49000;50.698;13.322;2022-12-17T15:34:55;-2.50;99.90
62904;DHT22;49000;50.698;13.322;2022-12-17T15:37:20;-2.50;99.90
62904;DHT22;49000;50.698;13.322;2022-12-17T15:39:46;-2.70;99.90
62904;DHT22;49000;50.698;13.322;2022-12-17T15:42:11;-2.70;99.90
62904;DHT22;49000;50.698;13.322;2022-12-17T15:44:56;-2.70;99.90
62904;DHT22;49000;50.698;13.322;2022-12-17T15:47:21;-3.10;99.90
62904;DHT22;49000;50.698;13.322;2022-12-17T15:49:47;-2.60;99.90
62904;DHT22;49000;50.698;13.322;2022-12-17T15:52:12;-2.80;99.90
62904;DHT22;49000;50.698;13.322;2022-12-17T15:54:42;-2.60;99.90
62904;DHT22;49000;50.698;13.322;2022-12-17T15:57:08;-2.60;99.90
62904;DHT22;49000;50.698;13.322;2022-12-17T15:59:34;-2.50;99.90
62904;DHT22;49000;50.698;13.322;2022-12-17T16:02:00;-2.60;99.90
62904;DHT22;49000;50.698;13.322;2022-12-17T16:04:25;-2.50;99.90
62904;DHT22;49000;50.698;13.322;2022-12-17T16:06:51;-2.50;99.90
62904;DHT22;49000;50.698;13.322;2022-12-17T16:09:16;-2.50;99.90
62904;DHT22;49000;50.698;13.322;2022-12-17T16:11:42;-2.60;99.90
62904;DHT22;49000;50.698;13.322;2022-12-17T16:14:07;-2.30;99.90
62904;DHT22;49000;50.698;13.322;2022-12-17T16:16:33;-2.50;99.90
62904;DHT22;49000;50.698;13.322;2022-12-17T16:18:58;-2.40;99.90
62904;DHT22;49000;50.698;13.322;2022-12-17T16:21:26;-2.40;99.90
62904;DHT22;49000;50.698;13.322;2022-12-17T16:23:51;-2.40;99.90
62904;DHT22;49000;50.698;13.322;2022-12-17T16:26:17;-2.20;99.90
62904;DHT22;49000;50.698;13.322;2022-12-17T16:28:43;-2.20;99.90
62904;DHT22;49000;50.698;13.322;2022-12-17T16:31:11;-2.20;99.90
62904;DHT22;49000;50.698;13.322;2022-12-17T16:33:39;-2.10;99.90
62904;DHT22;49000;50.698;13.322;2022-12-17T16:36:06;-2.40;99.90
62904;DHT22;49000;50.698;13.322;2022-12-17T16:38:32;-2.30;99.90
62904;DHT22;49000;50.698;13.322;2022-12-17T16:41:00;-2.80;99.90
62904;DHT22;49000;50.698;13.322;2022-12-17T16:43:27;-2.60;99.90
62904;DHT22;49000;50.698;13.322;2022-12-17T16:45:53;-2.40;99.90
62904;DHT22;49000;50.698;13.322;2022-12-17T16:48:22;-2.90;99.90
62904;DHT22;49000;50.698;13.322;2022-12-17T16:50:49;-2.50;99.90
62904;DHT22;49000;50.698;13.322;2022-12-17T16:53:16;-2.40;99.90
62904;DHT22;49000;50.698;13.322;2022-12-17T16:55:46;-2.40;99.90
62904;DHT22;49000;50.698;13.322;2022-12-17T16:58:16;-2.50;99.90
62904;DHT22;49000;50.698;13.322;2022-12-17T17:00:42;-2.70;99.90
62904;DHT22;49000;50.698;13.322;2022-12-17T17:03:08;-2.60;99.90
62904;DHT22;49000;50.698;13.322;2022-12-17T17:05:36;-2.60;99.90
62904;DHT22;49000;50.698;13.322;2022-12-17T17:08:02;-3.10;99.90
62904;DHT22;49000;50.698;13.322;2022-12-17T17:10:29;-2.90;99.90
62904;DHT22;49000;50.698;13.322;2022-12-17T17:12:54;-3.00;99.90
62904;DHT22;49000;50.698;13.322;2022-12-17T17:15:20;-2.90;99.90
62904;DHT22;49000;50.698;13.322;2022-12-17T17:17:49;-3.50;99.90
62904;DHT22;49000;50.698;13.322;2022-12-17T17:20:15;-2.80;99.90
62904;DHT22;49000;50.698;13.322;2022-12-17T17:22:41;-2.70;99.90
62904;DHT22;49000;50.698;13.322;2022-12-17T17:25:07;-2.80;99.90
62904;DHT22;49000;50.698;13.322;2022-12-17T17:27:32;-2.80;99.90
62904;DHT22;49000;50.698;13.322;2022-12-17T17:29:58;-2.70;99.90
62904;DHT22;49000;50.698;13.322;2022-12-17T17:32:24;-2.80;99.90
62904;DHT22;49000;50.698;13.322;2022-12-17T17:34:50;-2.60;99.90
62904;DHT22;49000;50.698;13.322;2022-12-17T17:37:16;-3.40;99.90
62904;DHT22;49000;50.698;13.322;2022-12-17T17:39:41;-2.80;99.90
62904;DHT22;49000;50.698;13.322;2022-12-17T17:42:07;-2.50;99.90
62904;DHT22;49000;50.698;13.322;2022-12-17T17:44:33;-2.60;99.90
62904;DHT22;49000;50.698;13.322;2022-12-17T17:46:58;-2.50;99.90
62904;DHT22;49000;50.698;13.322;2022-12-17T17:49:24;-2.50;99.90
62904;DHT22;49000;50.698;13.322;2022-12-17T17:51:49;-2.50;99.90
62904;DHT22;49000;50.698;13.322;2022-12-17T17:54:15;-3.20;99.90
62904;DHT22;49000;50.698;13.322;2022-12-17T17:56:41;-2.90;99.90
62904;DHT22;49000;50.698;13.322;2022-12-17T17:59:12;-2.70;99.90